BIR weather

Public forecast

Using degrees Celsius for public forecast. Weather courtesy of forecast.io.

Closest aviation weather report (METAR) to Biratnagar Airport

Report is more than 6 hours old.

Closest report is Bagdogra Airport, 58.4 nm (108.2 km) ENE. Retrieved 2020/08/12 10:30 UTC (16 hours ago):

VEBD 121030Z 08004KT 6000 SCT010 SCT015 FEW025TCU BKN090 30/26 Q1000 TEMPO TSRA

Closest aviation forecast (TAF) to Biratnagar Airport

Forecast is more than 12 hours old.

Closest forecast is Bagdogra Airport, 58.4 nm (108.2 km) ENE. Retrieved 2020/08/12 06:30 UTC (20 hours ago):

TAF VEBD 120330Z 1206/1218 06005KT 6000 SCT025 SCT090 TEMPO 1206/1208 BKN010 SCT025 BKN080 TEMPO 1216/1218 2000 TSRA SCT025 FEW030CB BKN090